Kohju — H3XI — position and weather

sailwx.info

Track history (hours):
 
Tides and Currents Weather Stations Pressure Air Temp Water Temp Dewpoint Dewpoint Depression Visibility Wind Speed Wind Dir Waves Ship Positions

Kohju

Last reported at 2014-Sep-14 18:23 UTC. Time now 2014-Oct-21 20:03 UTC.
Position N 36°41' W 001°05'.
Warning: this ship's position is 37 days out of date.

Length 289 m; draft 10.6 m.

Type: Cargo ship. MMSI: 357349000.

Date/timePositionNaut miles runAvg speedWind from/ knotsBaromVisibWave heightAir tempDewpointWater temp
2014-Sep-14 18:23N 36°41' W 001°05'1112.6
2014-Sep-14 17:33N 36°44' W 000°53'1312.7
2014-Sep-14 16:31N 36°47' W 000°37'1212.8
2014-Sep-14 15:33N 36°51' W 000°22'1212.5
2014-Sep-14 14:33N 36°54' W 000°07'1212.4
2014-Sep-14 13:33N 36°57' E 000°08'1212.3
2014-Sep-14 12:33N 37°01' E 000°23'1212.1
2014-Sep-14 11:33N 37°04' E 000°37'1211.9
2014-Sep-14 10:33N 37°07' E 000°52'1212.1
2014-Sep-14 09:32N 37°11' E 001°07'1312.8
2014-Sep-14 08:33N 37°14' E 001°22'1313.3
2014-Sep-14 07:33N 37°18' E 001°38'1413.5
2014-Sep-14 06:33N 37°22' E 001°54'1413.9
2014-Sep-14 05:33N 37°26' E 002°11'10913.5
2014-Sep-13 21:28N 37°51' E 004°24'17113.2
2014-Sep-13 08:32N 37°58' E 008°00'20812.7
2014-Sep-12 16:06N 37°01' E 012°12'1012.5
2014-Sep-12 15:17N 36°55' E 012°23'1013.4
2014-Sep-12 14:34N 36°51' E 012°34'1613.3
2014-Sep-12 13:22N 36°44' E 012°51'1113.4
2014-Sep-12 12:34N 36°39' E 013°03'1313.3
2014-Sep-12 11:34N 36°33' E 013°19'1612.6
2014-Sep-12 10:19N 36°26' E 013°36'1012.7
2014-Sep-12 09:32N 36°22' E 013°47'1212.7
2014-Sep-12 08:34N 36°16' E 014°00'1312.7
2014-Sep-12 07:34N 36°10' E 014°14'1312.8
2014-Sep-12 06:34N 36°05' E 014°29'1312.6
2014-Sep-12 05:33N 35°57' E 014°41'6 2.3
2014-Sep-12 03:05N 35°53' E 014°46'0 0.0
2014-Sep-12 02:32N 35°53' E 014°46'  
2014-Sep-09 17:31N 37°15' E 024°07'1413.6
2014-Sep-09 16:30N 37°26' E 024°18'1414.3
2014-Sep-09 15:33N 37°37' E 024°28'1413.5
2014-Sep-09 14:31N 37°50' E 024°35'9413.5
2014-Sep-09 07:33N 39°19' E 025°12'1713.7
2014-Sep-09 06:20N 39°32' E 025°25'1113.6
2014-Sep-09 05:32N 39°40' E 025°35'1413.8
2014-Sep-09 04:31N 39°50' E 025°47'18411.4
2014-Sep-08 12:22N 41°21' E 029°19'6 7.3
2014-Sep-08 11:33N 41°19' E 029°27'1 1.3
2014-Sep-08 10:33N 41°20' E 029°25'1 1.3
2014-Sep-08 09:33N 41°20' E 029°24'1 1.5
2014-Sep-08 08:33N 41°21' E 029°22'8 0.6
2014-Sep-07 17:33N 41°23' E 029°11'1212.2
2014-Sep-07 16:33N 41°24' E 029°28'  
Track history (hours):
 
Tides and Currents Weather Stations Pressure Air Temp Water Temp Dewpoint Dewpoint Depression Visibility Wind Speed Wind Dir Waves Ship Positions

Kohju

Last reported at 2014-Sep-14 18:23 UTC. Time now 2014-Oct-21 20:03 UTC.
Position N 36°41' W 001°05'.
Warning: this ship's position is 37 days out of date.

Length 289 m; draft 10.6 m.

Type: Cargo ship. MMSI: 357349000.

Date/timePositionNaut miles runAvg speedWind from/ knotsBaromVisibWave heightAir tempDewpointWater temp
2014-Sep-14 18:23N 36°41' W 001°05'1112.6
2014-Sep-14 17:33N 36°44' W 000°53'1312.7
2014-Sep-14 16:31N 36°47' W 000°37'1212.8
2014-Sep-14 15:33N 36°51' W 000°22'1212.5
2014-Sep-14 14:33N 36°54' W 000°07'1212.4
2014-Sep-14 13:33N 36°57' E 000°08'1212.3
2014-Sep-14 12:33N 37°01' E 000°23'1212.1
2014-Sep-14 11:33N 37°04' E 000°37'1211.9
2014-Sep-14 10:33N 37°07' E 000°52'1212.1
2014-Sep-14 09:32N 37°11' E 001°07'1312.8
2014-Sep-14 08:33N 37°14' E 001°22'1313.3
2014-Sep-14 07:33N 37°18' E 001°38'1413.5
2014-Sep-14 06:33N 37°22' E 001°54'1413.9
2014-Sep-14 05:33N 37°26' E 002°11'10913.5
2014-Sep-13 21:28N 37°51' E 004°24'17113.2
2014-Sep-13 08:32N 37°58' E 008°00'20812.7
2014-Sep-12 16:06N 37°01' E 012°12'1012.5
2014-Sep-12 15:17N 36°55' E 012°23'1013.4
2014-Sep-12 14:34N 36°51' E 012°34'1613.3
2014-Sep-12 13:22N 36°44' E 012°51'1113.4
2014-Sep-12 12:34N 36°39' E 013°03'1313.3
2014-Sep-12 11:34N 36°33' E 013°19'1612.6
2014-Sep-12 10:19N 36°26' E 013°36'1012.7
2014-Sep-12 09:32N 36°22' E 013°47'1212.7
2014-Sep-12 08:34N 36°16' E 014°00'1312.7
2014-Sep-12 07:34N 36°10' E 014°14'1312.8
2014-Sep-12 06:34N 36°05' E 014°29'1312.6
2014-Sep-12 05:33N 35°57' E 014°41'6 2.3
2014-Sep-12 03:05N 35°53' E 014°46'0 0.0
2014-Sep-12 02:32N 35°53' E 014°46'  
2014-Sep-09 17:31N 37°15' E 024°07'1413.6
2014-Sep-09 16:30N 37°26' E 024°18'1414.3
2014-Sep-09 15:33N 37°37' E 024°28'1413.5
2014-Sep-09 14:31N 37°50' E 024°35'9413.5
2014-Sep-09 07:33N 39°19' E 025°12'1713.7
2014-Sep-09 06:20N 39°32' E 025°25'1113.6
2014-Sep-09 05:32N 39°40' E 025°35'1413.8
2014-Sep-09 04:31N 39°50' E 025°47'18411.4
2014-Sep-08 12:22N 41°21' E 029°19'6 7.3
2014-Sep-08 11:33N 41°19' E 029°27'1 1.3
2014-Sep-08 10:33N 41°20' E 029°25'1 1.3
2014-Sep-08 09:33N 41°20' E 029°24'1 1.5
2014-Sep-08 08:33N 41°21' E 029°22'8 0.6
2014-Sep-07 17:33N 41°23' E 029°11'1212.2
2014-Sep-07 16:33N 41°24' E 029°28'  

Dump ship's entire track history